KHV224 VHHH-VDPP
Flight info
| Callsign | KHV224 |
|---|---|
| Flight time | 2h 28m |
| Altitude | 34000 |
| Route | PECAN V11 IDOSI P901 IKELA/K0856F340 A1 DAN Q1 MUMGA G474 PLK R588 GONLY/N0458F340 DETMA3A |
| Aircraft | A321/M-SDE3FGHIRWY/LB1 |
Departure
| Time | 2026-04-21 07:33 |
|---|---|
| Airport | Hong Kong International Airport (VHHH) |
Arrival
| Time | 2026-04-21 10:02 |
|---|---|
| Airport | Phnom Penh International Airport (VDPP) |
| Time | Latitude | Longitude | Altitude | Speed | Heading |
|---|---|---|---|---|---|
| 2026-04-21 07:11 | 22.31744 | 113.93089 | 32 ft | 0 kts | 261° |
| 2026-04-21 07:27 | 22.31746 | 113.93101 | 32 ft | 4 kts | 256° |
| 2026-04-21 07:27 | 22.31750 | 113.93124 | 32 ft | 4 kts | 262° |
| 2026-04-21 07:27 | 22.31750 | 113.93151 | 32 ft | 4 kts | 293° |
| 2026-04-21 07:27 | 22.31735 | 113.93168 | 31 ft | 3 kts | 341° |
| 2026-04-21 07:28 | 22.31714 | 113.93176 | 31 ft | 1 kts | 341° |
| 2026-04-21 07:30 | 22.31720 | 113.93174 | 30 ft | 4 kts | 341° |
| 2026-04-21 07:30 | 22.31771 | 113.93155 | 31 ft | 11 kts | 341° |
| 2026-04-21 07:31 | 22.31849 | 113.93123 | 32 ft | 12 kts | 329° |
| 2026-04-21 07:31 | 22.31860 | 113.93045 | 31 ft | 11 kts | 250° |
| 2026-04-21 07:31 | 22.31835 | 113.92963 | 32 ft | 11 kts | 259° |
| 2026-04-21 07:31 | 22.31880 | 113.92908 | 32 ft | 12 kts | 337° |
| 2026-04-21 07:32 | 22.31976 | 113.92867 | 33 ft | 17 kts | 340° |
| 2026-04-21 07:32 | 22.32066 | 113.92826 | 34 ft | 9 kts | 308° |
| 2026-04-21 07:32 | 22.32058 | 113.92796 | 34 ft | 6 kts | 244° |
| 2026-04-21 07:32 | 22.32017 | 113.92668 | 34 ft | 42 kts | 251° |
| 2026-04-21 07:33 | 22.31845 | 113.92137 | 34 ft | 105 kts | 251° |
| 2026-04-21 07:33 | 22.31543 | 113.91204 | 33 ft | 155 kts | 250° |
| 2026-04-21 07:33 | 22.31147 | 113.89997 | 263 ft | 176 kts | 251° |
| 2026-04-21 07:33 | 22.30751 | 113.88750 | 918 ft | 176 kts | 247° |
| 2026-04-21 07:34 | 22.30372 | 113.87512 | 1555 ft | 175 kts | 248° |
| 2026-04-21 07:34 | 22.29974 | 113.86251 | 2015 ft | 182 kts | 246° |
| 2026-04-21 07:34 | 22.29532 | 113.84928 | 2374 ft | 191 kts | 245° |
| 2026-04-21 07:34 | 22.29032 | 113.83554 | 2690 ft | 202 kts | 243° |
| 2026-04-21 07:35 | 22.28469 | 113.82125 | 3015 ft | 212 kts | 242° |
| 2026-04-21 07:35 | 22.27847 | 113.80652 | 3364 ft | 220 kts | 240° |
| 2026-04-21 07:35 | 22.27163 | 113.79135 | 3719 ft | 229 kts | 240° |
| 2026-04-21 07:35 | 22.26636 | 113.77462 | 4179 ft | 234 kts | 251° |
| 2026-04-21 07:36 | 22.26230 | 113.75811 | 5028 ft | 223 kts | 250° |
| 2026-04-21 07:36 | 22.25753 | 113.74242 | 5668 ft | 217 kts | 239° |
| 2026-04-21 07:36 | 22.24823 | 113.72964 | 5991 ft | 224 kts | 216° |
| 2026-04-21 07:36 | 22.23484 | 113.71986 | 6238 ft | 239 kts | 211° |
| 2026-04-21 07:37 | 22.21933 | 113.71327 | 6703 ft | 243 kts | 189° |
| 2026-04-21 07:37 | 22.20234 | 113.71423 | 7188 ft | 250 kts | 166° |
| 2026-04-21 07:37 | 22.18603 | 113.72124 | 7698 ft | 254 kts | 160° |
| 2026-04-21 07:37 | 22.16966 | 113.72880 | 8233 ft | 257 kts | 160° |
| 2026-04-21 07:38 | 22.15335 | 113.73629 | 8757 ft | 260 kts | 160° |
| 2026-04-21 07:38 | 22.13657 | 113.74395 | 9275 ft | 263 kts | 161° |
| 2026-04-21 07:38 | 22.12015 | 113.75311 | 9767 ft | 272 kts | 149° |
| 2026-04-21 07:38 | 22.10471 | 113.76625 | 9906 ft | 291 kts | 144° |
| 2026-04-21 07:39 | 22.08867 | 113.78048 | 10078 ft | 307 kts | 144° |
| 2026-04-21 07:39 | 22.07338 | 113.79762 | 10200 ft | 329 kts | 128° |
| 2026-04-21 07:39 | 22.06266 | 113.82020 | 10322 ft | 350 kts | 110° |
| 2026-04-21 07:39 | 22.05698 | 113.84641 | 10464 ft | 366 kts | 104° |
| 2026-04-21 07:40 | 22.05171 | 113.87357 | 10830 ft | 372 kts | 104° |
| 2026-04-21 07:40 | 22.04584 | 113.90081 | 11249 ft | 374 kts | 110° |
| 2026-04-21 07:40 | 22.03573 | 113.92652 | 11688 ft | 373 kts | 122° |
| 2026-04-21 07:40 | 22.02096 | 113.94944 | 12119 ft | 372 kts | 134° |
| 2026-04-21 07:41 | 22.00238 | 113.96883 | 12548 ft | 372 kts | 143° |
| 2026-04-21 07:41 | 21.98271 | 113.98705 | 12987 ft | 375 kts | 143° |
| 2026-04-21 07:41 | 21.96287 | 114.00542 | 13433 ft | 377 kts | 143° |
| 2026-04-21 07:41 | 21.94183 | 114.02223 | 13830 ft | 376 kts | 153° |
| 2026-04-21 07:42 | 21.91830 | 114.03437 | 14191 ft | 374 kts | 164° |
| 2026-04-21 07:42 | 21.89321 | 114.04138 | 14547 ft | 373 kts | 174° |
| 2026-04-21 07:42 | 21.86750 | 114.04615 | 14901 ft | 376 kts | 173° |
| 2026-04-21 07:42 | 21.84196 | 114.05096 | 15260 ft | 379 kts | 173° |
| 2026-04-21 07:43 | 21.81593 | 114.05590 | 15609 ft | 382 kts | 173° |
| 2026-04-21 07:43 | 21.78963 | 114.06094 | 15951 ft | 385 kts | 173° |
| 2026-04-21 07:43 | 21.76315 | 114.06603 | 16291 ft | 388 kts | 173° |
| 2026-04-21 07:43 | 21.73650 | 114.07116 | 16626 ft | 391 kts | 173° |
| 2026-04-21 07:44 | 21.70963 | 114.07629 | 16961 ft | 394 kts | 173° |
| 2026-04-21 07:44 | 21.68254 | 114.08141 | 17302 ft | 396 kts | 173° |
| 2026-04-21 07:44 | 21.65418 | 114.08499 | 17639 ft | 397 kts | 182° |
| 2026-04-21 07:44 | 21.62759 | 114.08322 | 17954 ft | 396 kts | 192° |
| 2026-04-21 07:45 | 21.60066 | 114.07680 | 18255 ft | 397 kts | 197° |
| 2026-04-21 07:45 | 21.57375 | 114.06970 | 18531 ft | 399 kts | 196° |
| 2026-04-21 07:45 | 21.54671 | 114.06264 | 18820 ft | 401 kts | 196° |
| 2026-04-21 07:45 | 21.51950 | 114.05560 | 19088 ft | 403 kts | 196° |
| 2026-04-21 07:46 | 21.49249 | 114.04865 | 19348 ft | 405 kts | 196° |
| 2026-04-21 07:46 | 21.46467 | 114.04151 | 19633 ft | 407 kts | 196° |
| 2026-04-21 07:46 | 21.43686 | 114.03518 | 19908 ft | 411 kts | 190° |
| 2026-04-21 07:46 | 21.40862 | 114.03276 | 20174 ft | 414 kts | 186° |
| 2026-04-21 07:47 | 21.37940 | 114.03083 | 20448 ft | 416 kts | 186° |
| 2026-04-21 07:47 | 21.35048 | 114.02892 | 20707 ft | 418 kts | 186° |
| 2026-04-21 07:47 | 21.32178 | 114.02702 | 20958 ft | 420 kts | 186° |
| 2026-04-21 07:47 | 21.29257 | 114.02508 | 21213 ft | 421 kts | 186° |
| 2026-04-21 07:48 | 21.26322 | 114.02312 | 21454 ft | 423 kts | 186° |
| 2026-04-21 07:48 | 21.23372 | 114.02115 | 21699 ft | 425 kts | 186° |
| 2026-04-21 07:48 | 21.20408 | 114.01916 | 21949 ft | 427 kts | 186° |
| 2026-04-21 07:48 | 21.17439 | 114.01719 | 22199 ft | 428 kts | 186° |
| 2026-04-21 07:49 | 21.14458 | 114.01524 | 22441 ft | 430 kts | 186° |
| 2026-04-21 07:49 | 21.11462 | 114.01325 | 22680 ft | 432 kts | 186° |
| 2026-04-21 07:49 | 21.08456 | 114.01121 | 22920 ft | 434 kts | 186° |
| 2026-04-21 07:49 | 21.05434 | 114.00915 | 23156 ft | 435 kts | 186° |
| 2026-04-21 07:50 | 21.02402 | 114.00711 | 23396 ft | 437 kts | 186° |
| 2026-04-21 07:50 | 20.99353 | 114.00509 | 23602 ft | 439 kts | 186° |
| 2026-04-21 07:50 | 20.96334 | 114.00106 | 23820 ft | 437 kts | 194° |
| 2026-04-21 07:50 | 20.93438 | 113.99156 | 24014 ft | 435 kts | 205° |
| 2026-04-21 07:51 | 20.90747 | 113.97685 | 24213 ft | 434 kts | 214° |
| 2026-04-21 07:51 | 20.88294 | 113.95813 | 24406 ft | 433 kts | 218° |
| 2026-04-21 07:51 | 20.85899 | 113.93916 | 24606 ft | 435 kts | 218° |
| 2026-04-21 07:51 | 20.83433 | 113.91969 | 24810 ft | 436 kts | 218° |
| 2026-04-21 07:52 | 20.81021 | 113.90067 | 25012 ft | 437 kts | 218° |
| 2026-04-21 07:52 | 20.78542 | 113.88115 | 25218 ft | 438 kts | 218° |
| 2026-04-21 07:52 | 20.76082 | 113.86182 | 25413 ft | 439 kts | 218° |
| 2026-04-21 07:52 | 20.73617 | 113.84247 | 25613 ft | 440 kts | 218° |
| 2026-04-21 07:53 | 20.71144 | 113.82305 | 25805 ft | 441 kts | 218° |
| 2026-04-21 07:53 | 20.68699 | 113.80384 | 26003 ft | 442 kts | 218° |
| 2026-04-21 07:53 | 20.66214 | 113.78430 | 26199 ft | 444 kts | 218° |
| 2026-04-21 07:53 | 20.63730 | 113.76476 | 26398 ft | 445 kts | 219° |
| 2026-04-21 07:54 | 20.61234 | 113.74511 | 26587 ft | 446 kts | 219° |
| 2026-04-21 07:54 | 20.58727 | 113.72536 | 26745 ft | 448 kts | 219° |
| 2026-04-21 07:54 | 20.56206 | 113.70556 | 26936 ft | 450 kts | 219° |
| 2026-04-21 07:54 | 20.53676 | 113.68577 | 27125 ft | 451 kts | 219° |
| 2026-04-21 07:55 | 20.51141 | 113.66599 | 27318 ft | 452 kts | 219° |
| 2026-04-21 07:55 | 20.48606 | 113.64613 | 27517 ft | 453 kts | 219° |
| 2026-04-21 07:55 | 20.46061 | 113.62613 | 27710 ft | 454 kts | 219° |
| 2026-04-21 07:55 | 20.43511 | 113.60612 | 27893 ft | 456 kts | 219° |
| 2026-04-21 07:56 | 20.40953 | 113.58611 | 28078 ft | 457 kts | 219° |
| 2026-04-21 07:56 | 20.38388 | 113.56603 | 28262 ft | 458 kts | 219° |
| 2026-04-21 07:56 | 20.35817 | 113.54591 | 28445 ft | 459 kts | 219° |
| 2026-04-21 07:56 | 20.33231 | 113.52572 | 28621 ft | 460 kts | 219° |
| 2026-04-21 07:57 | 20.30679 | 113.50583 | 28787 ft | 461 kts | 219° |
| 2026-04-21 07:57 | 20.28084 | 113.48561 | 28948 ft | 462 kts | 219° |
| 2026-04-21 07:57 | 20.25489 | 113.46535 | 29101 ft | 463 kts | 219° |
| 2026-04-21 07:57 | 20.22884 | 113.44498 | 29250 ft | 464 kts | 219° |
| 2026-04-21 07:58 | 20.20279 | 113.42462 | 29400 ft | 465 kts | 219° |
| 2026-04-21 07:58 | 20.17670 | 113.40425 | 29543 ft | 466 kts | 219° |
| 2026-04-21 07:58 | 20.15054 | 113.38385 | 29676 ft | 466 kts | 219° |
| 2026-04-21 07:58 | 20.12436 | 113.36344 | 29812 ft | 467 kts | 219° |
| 2026-04-21 07:59 | 20.09811 | 113.34300 | 29993 ft | 466 kts | 219° |
| 2026-04-21 07:59 | 20.07200 | 113.32268 | 30150 ft | 466 kts | 219° |
| 2026-04-21 07:59 | 20.04581 | 113.30229 | 30308 ft | 465 kts | 219° |
| 2026-04-21 07:59 | 20.01971 | 113.28197 | 30465 ft | 465 kts | 219° |
| 2026-04-21 08:00 | 19.99397 | 113.26196 | 30617 ft | 464 kts | 219° |
| 2026-04-21 08:00 | 19.96784 | 113.24169 | 30771 ft | 464 kts | 219° |
| 2026-04-21 08:00 | 19.94182 | 113.22147 | 30922 ft | 463 kts | 219° |
| 2026-04-21 08:00 | 19.91583 | 113.20127 | 31079 ft | 463 kts | 219° |
| 2026-04-21 08:01 | 19.88985 | 113.18113 | 31235 ft | 462 kts | 219° |
| 2026-04-21 08:01 | 19.86386 | 113.16102 | 31383 ft | 462 kts | 219° |
| 2026-04-21 08:01 | 19.83789 | 113.14092 | 31549 ft | 461 kts | 219° |
| 2026-04-21 08:02 | 19.78611 | 113.10076 | 31852 ft | 460 kts | 219° |
| 2026-04-21 08:02 | 19.76029 | 113.08074 | 32007 ft | 460 kts | 219° |
| 2026-04-21 08:02 | 19.74309 | 113.06742 | 32116 ft | 459 kts | 219° |
| 2026-04-21 08:02 | 19.71729 | 113.04744 | 32268 ft | 459 kts | 219° |
| 2026-04-21 08:03 | 19.69152 | 113.02747 | 32423 ft | 458 kts | 219° |
| 2026-04-21 08:03 | 19.66572 | 113.00753 | 32577 ft | 458 kts | 219° |
| 2026-04-21 08:03 | 19.63996 | 112.98767 | 32726 ft | 458 kts | 219° |
| 2026-04-21 08:03 | 19.61421 | 112.96777 | 32875 ft | 457 kts | 219° |
| 2026-04-21 08:04 | 19.58852 | 112.94787 | 33021 ft | 457 kts | 219° |
| 2026-04-21 08:04 | 19.56290 | 112.92808 | 33190 ft | 456 kts | 219° |
| 2026-04-21 08:04 | 19.53727 | 112.90833 | 33348 ft | 455 kts | 219° |
| 2026-04-21 08:04 | 19.51168 | 112.88863 | 33498 ft | 455 kts | 219° |
| 2026-04-21 08:05 | 19.48607 | 112.86890 | 33645 ft | 454 kts | 219° |
| 2026-04-21 08:05 | 19.46058 | 112.84924 | 33813 ft | 453 kts | 219° |
| 2026-04-21 08:05 | 19.43510 | 112.82959 | 33878 ft | 452 kts | 219° |
| 2026-04-21 08:06 | 19.38437 | 112.79047 | 33878 ft | 450 kts | 219° |
| 2026-04-21 08:06 | 19.33361 | 112.75146 | 33880 ft | 452 kts | 218° |
| 2026-04-21 08:07 | 19.28272 | 112.71246 | 33872 ft | 451 kts | 218° |
| 2026-04-21 08:07 | 19.23158 | 112.67400 | 33885 ft | 451 kts | 218° |
| 2026-04-21 08:08 | 19.18070 | 112.63594 | 33875 ft | 451 kts | 218° |
| 2026-04-21 08:08 | 19.12955 | 112.59741 | 33884 ft | 451 kts | 218° |
| 2026-04-21 08:09 | 19.07844 | 112.55894 | 33892 ft | 451 kts | 218° |
| 2026-04-21 08:09 | 19.02723 | 112.52048 | 33879 ft | 451 kts | 218° |
| 2026-04-21 08:10 | 18.97608 | 112.48208 | 33893 ft | 450 kts | 218° |
| 2026-04-21 08:10 | 18.92511 | 112.44364 | 33894 ft | 450 kts | 218° |
| 2026-04-21 08:11 | 18.87417 | 112.40514 | 33890 ft | 450 kts | 218° |
| 2026-04-21 08:11 | 18.82350 | 112.36689 | 33895 ft | 450 kts | 218° |
| 2026-04-21 08:12 | 18.77246 | 112.32843 | 33892 ft | 450 kts | 218° |
| 2026-04-21 08:12 | 18.72147 | 112.29003 | 33889 ft | 450 kts | 218° |
| 2026-04-21 08:13 | 18.67147 | 112.25047 | 33893 ft | 447 kts | 225° |
| 2026-04-21 08:13 | 18.63305 | 112.19969 | 33894 ft | 443 kts | 238° |
| 2026-04-21 08:14 | 18.59897 | 112.14558 | 33892 ft | 443 kts | 238° |
| 2026-04-21 08:14 | 18.56478 | 112.09156 | 33886 ft | 443 kts | 238° |
| 2026-04-21 08:15 | 18.53046 | 112.03745 | 33882 ft | 444 kts | 238° |
| 2026-04-21 08:15 | 18.49608 | 111.98329 | 33883 ft | 444 kts | 238° |
| 2026-04-21 08:16 | 18.46197 | 111.92937 | 33883 ft | 444 kts | 238° |
| 2026-04-21 08:16 | 18.42772 | 111.87528 | 33890 ft | 444 kts | 238° |
| 2026-04-21 08:17 | 18.39344 | 111.82126 | 33892 ft | 443 kts | 238° |
| 2026-04-21 08:17 | 18.35909 | 111.76728 | 33889 ft | 443 kts | 237° |
| 2026-04-21 08:18 | 18.32474 | 111.71337 | 33886 ft | 444 kts | 237° |
| 2026-04-21 08:18 | 18.29033 | 111.65940 | 33885 ft | 444 kts | 237° |
| 2026-04-21 08:19 | 18.25601 | 111.60537 | 33886 ft | 444 kts | 237° |
| 2026-04-21 08:19 | 18.22162 | 111.55136 | 33886 ft | 444 kts | 237° |
| 2026-04-21 08:20 | 18.18731 | 111.49767 | 33879 ft | 444 kts | 237° |
| 2026-04-21 08:20 | 18.15280 | 111.44362 | 33886 ft | 444 kts | 237° |
| 2026-04-21 08:21 | 18.11838 | 111.38971 | 33888 ft | 444 kts | 237° |
| 2026-04-21 08:21 | 18.08394 | 111.33582 | 33888 ft | 443 kts | 237° |
| 2026-04-21 08:22 | 18.04951 | 111.28208 | 33890 ft | 443 kts | 237° |
| 2026-04-21 08:22 | 18.01523 | 111.22865 | 33886 ft | 443 kts | 237° |
| 2026-04-21 08:23 | 17.98077 | 111.17498 | 33886 ft | 443 kts | 237° |
| 2026-04-21 08:23 | 17.94629 | 111.12122 | 33884 ft | 444 kts | 237° |
| 2026-04-21 08:24 | 17.91178 | 111.06752 | 33874 ft | 444 kts | 237° |
| 2026-04-21 08:24 | 17.87719 | 111.01372 | 33876 ft | 444 kts | 237° |
| 2026-04-21 08:25 | 17.84259 | 110.95984 | 33874 ft | 444 kts | 237° |
| 2026-04-21 08:25 | 17.80797 | 110.90610 | 33875 ft | 444 kts | 237° |
| 2026-04-21 08:26 | 17.77353 | 110.85267 | 33875 ft | 444 kts | 237° |
| 2026-04-21 08:26 | 17.73883 | 110.79893 | 33873 ft | 445 kts | 237° |
| 2026-04-21 08:27 | 17.70418 | 110.74514 | 33865 ft | 445 kts | 237° |
| 2026-04-21 08:27 | 17.66941 | 110.69129 | 33862 ft | 446 kts | 237° |
| 2026-04-21 08:28 | 17.63458 | 110.63749 | 33865 ft | 446 kts | 237° |
| 2026-04-21 08:28 | 17.59973 | 110.58363 | 33865 ft | 446 kts | 237° |
| 2026-04-21 08:29 | 17.56489 | 110.52976 | 33867 ft | 446 kts | 237° |
| 2026-04-21 08:29 | 17.53015 | 110.47619 | 33868 ft | 446 kts | 237° |
| 2026-04-21 08:30 | 17.49515 | 110.42235 | 33845 ft | 448 kts | 237° |
| 2026-04-21 08:30 | 17.46001 | 110.36818 | 33843 ft | 449 kts | 237° |
| 2026-04-21 08:31 | 17.42479 | 110.31394 | 33845 ft | 450 kts | 237° |
| 2026-04-21 08:31 | 17.38971 | 110.25962 | 33849 ft | 450 kts | 237° |
| 2026-04-21 08:32 | 17.35514 | 110.20541 | 33856 ft | 450 kts | 237° |
| 2026-04-21 08:32 | 17.32039 | 110.15083 | 33862 ft | 450 kts | 237° |
| 2026-04-21 08:33 | 17.28544 | 110.09624 | 33849 ft | 451 kts | 238° |
| 2026-04-21 08:33 | 17.25034 | 110.04162 | 33842 ft | 453 kts | 238° |
| 2026-04-21 08:34 | 17.21514 | 109.98689 | 33847 ft | 454 kts | 238° |
| 2026-04-21 08:34 | 17.17996 | 109.93203 | 33849 ft | 454 kts | 238° |
| 2026-04-21 08:35 | 17.14468 | 109.87715 | 33850 ft | 454 kts | 237° |
| 2026-04-21 08:35 | 17.10935 | 109.82235 | 33855 ft | 455 kts | 237° |
| 2026-04-21 08:36 | 17.07395 | 109.76752 | 33844 ft | 455 kts | 237° |
| 2026-04-21 08:36 | 17.03874 | 109.71290 | 33843 ft | 456 kts | 238° |
| 2026-04-21 08:37 | 17.00328 | 109.65784 | 33840 ft | 457 kts | 238° |
| 2026-04-21 08:37 | 16.96768 | 109.60274 | 33847 ft | 457 kts | 238° |
| 2026-04-21 08:38 | 16.93206 | 109.54767 | 33851 ft | 458 kts | 237° |
| 2026-04-21 08:38 | 16.89641 | 109.49255 | 33852 ft | 458 kts | 238° |
| 2026-04-21 08:39 | 16.86075 | 109.43745 | 33849 ft | 458 kts | 238° |
| 2026-04-21 08:39 | 16.82490 | 109.38218 | 33845 ft | 459 kts | 238° |
| 2026-04-21 08:40 | 16.78911 | 109.32684 | 33843 ft | 460 kts | 238° |
| 2026-04-21 08:40 | 16.75332 | 109.27156 | 33844 ft | 460 kts | 238° |
| 2026-04-21 08:41 | 16.71753 | 109.21622 | 33840 ft | 460 kts | 238° |
| 2026-04-21 08:41 | 16.68189 | 109.16126 | 33840 ft | 460 kts | 238° |
| 2026-04-21 08:42 | 16.64603 | 109.10595 | 33835 ft | 460 kts | 238° |
| 2026-04-21 08:42 | 16.61012 | 109.05062 | 33827 ft | 461 kts | 238° |
| 2026-04-21 08:43 | 16.57413 | 108.99517 | 33829 ft | 462 kts | 238° |
| 2026-04-21 08:43 | 16.53789 | 108.93971 | 33824 ft | 463 kts | 238° |
| 2026-04-21 08:44 | 16.50111 | 108.88455 | 33829 ft | 463 kts | 237° |
| 2026-04-21 08:44 | 16.46412 | 108.82950 | 33826 ft | 464 kts | 237° |
| 2026-04-21 08:45 | 16.42721 | 108.77433 | 33821 ft | 464 kts | 238° |
| 2026-04-21 08:45 | 16.39055 | 108.71936 | 33815 ft | 465 kts | 238° |
| 2026-04-21 08:46 | 16.35359 | 108.66397 | 33811 ft | 466 kts | 238° |
| 2026-04-21 08:46 | 16.31704 | 108.60812 | 33818 ft | 467 kts | 239° |
| 2026-04-21 08:47 | 16.28108 | 108.55177 | 33819 ft | 467 kts | 239° |
| 2026-04-21 08:47 | 16.24509 | 108.49538 | 33822 ft | 467 kts | 239° |
| 2026-04-21 08:48 | 16.20885 | 108.43915 | 33821 ft | 468 kts | 239° |
| 2026-04-21 08:48 | 16.17263 | 108.38333 | 33808 ft | 468 kts | 239° |
| 2026-04-21 08:49 | 16.13617 | 108.32707 | 33826 ft | 469 kts | 239° |
| 2026-04-21 08:49 | 16.09974 | 108.27085 | 33830 ft | 470 kts | 237° |
| 2026-04-21 08:49 | 16.07836 | 108.24497 | 33828 ft | 474 kts | 226° |
| 2026-04-21 08:50 | 16.06118 | 108.23005 | 33825 ft | 477 kts | 218° |
| 2026-04-21 08:50 | 16.03287 | 108.21273 | 33825 ft | 481 kts | 206° |
| 2026-04-21 08:50 | 16.00122 | 108.20125 | 33821 ft | 484 kts | 194° |
| 2026-04-21 08:50 | 15.96781 | 108.19634 | 33818 ft | 486 kts | 183° |
| 2026-04-21 08:51 | 15.93396 | 108.19544 | 33818 ft | 487 kts | 182° |
| 2026-04-21 08:51 | 15.86604 | 108.19401 | 33810 ft | 488 kts | 182° |
| 2026-04-21 08:52 | 15.79796 | 108.19263 | 33803 ft | 489 kts | 182° |
| 2026-04-21 08:52 | 15.72989 | 108.19119 | 33800 ft | 489 kts | 182° |
| 2026-04-21 08:53 | 15.66222 | 108.18974 | 33802 ft | 489 kts | 182° |
| 2026-04-21 08:53 | 15.59406 | 108.18824 | 33805 ft | 489 kts | 182° |
| 2026-04-21 08:54 | 15.52590 | 108.18680 | 33813 ft | 490 kts | 181° |
| 2026-04-21 08:54 | 15.45773 | 108.18532 | 33814 ft | 490 kts | 182° |
| 2026-04-21 08:55 | 15.38950 | 108.18385 | 33822 ft | 490 kts | 181° |
| 2026-04-21 08:55 | 15.32127 | 108.18241 | 33824 ft | 490 kts | 182° |
| 2026-04-21 08:56 | 15.25341 | 108.18088 | 33848 ft | 490 kts | 182° |
| 2026-04-21 08:56 | 15.18516 | 108.17936 | 33851 ft | 490 kts | 181° |
| 2026-04-21 08:57 | 15.11702 | 108.17798 | 33875 ft | 489 kts | 181° |
| 2026-04-21 08:57 | 15.04894 | 108.17657 | 33871 ft | 489 kts | 181° |
| 2026-04-21 08:58 | 14.98089 | 108.17503 | 33880 ft | 489 kts | 181° |
| 2026-04-21 08:58 | 14.91293 | 108.17344 | 33883 ft | 488 kts | 181° |
| 2026-04-21 08:59 | 14.84504 | 108.17196 | 33891 ft | 488 kts | 181° |
| 2026-04-21 08:59 | 14.77723 | 108.17047 | 33892 ft | 487 kts | 181° |
| 2026-04-21 09:00 | 14.70999 | 108.16901 | 33884 ft | 486 kts | 181° |
| 2026-04-21 09:00 | 14.64231 | 108.16760 | 33883 ft | 486 kts | 181° |
| 2026-04-21 09:01 | 14.57472 | 108.16608 | 33886 ft | 486 kts | 181° |
| 2026-04-21 09:01 | 14.50716 | 108.16451 | 33881 ft | 485 kts | 181° |
| 2026-04-21 09:02 | 14.43967 | 108.16302 | 33877 ft | 485 kts | 181° |
| 2026-04-21 09:02 | 14.37200 | 108.16158 | 33874 ft | 485 kts | 181° |
| 2026-04-21 09:03 | 14.27078 | 108.15937 | 33866 ft | 485 kts | 181° |
| 2026-04-21 09:03 | 14.20335 | 108.15786 | 33863 ft | 485 kts | 181° |
| 2026-04-21 09:04 | 14.13593 | 108.15649 | 33865 ft | 484 kts | 182° |
| 2026-04-21 09:04 | 14.10271 | 108.15176 | 33864 ft | 482 kts | 197° |
| 2026-04-21 09:04 | 14.07201 | 108.13938 | 33859 ft | 479 kts | 211° |
| 2026-04-21 09:05 | 14.04455 | 108.11954 | 33853 ft | 475 kts | 225° |
| 2026-04-21 09:05 | 14.02305 | 108.09462 | 33846 ft | 470 kts | 238° |
| 2026-04-21 09:05 | 14.00740 | 108.06487 | 33841 ft | 465 kts | 252° |
| 2026-04-21 09:05 | 13.99863 | 108.03302 | 33838 ft | 462 kts | 260° |
| 2026-04-21 09:06 | 13.98942 | 108.00170 | 33833 ft | 466 kts | 249° |
| 2026-04-21 09:06 | 13.97378 | 107.97243 | 33830 ft | 470 kts | 237° |
| 2026-04-21 09:06 | 13.93621 | 107.91722 | 33823 ft | 471 kts | 238° |
| 2026-04-21 09:07 | 13.89989 | 107.86115 | 33815 ft | 471 kts | 239° |
| 2026-04-21 09:07 | 13.86392 | 107.80470 | 33821 ft | 472 kts | 239° |
| 2026-04-21 09:08 | 13.82770 | 107.74828 | 33820 ft | 472 kts | 238° |
| 2026-04-21 09:08 | 13.79122 | 107.69197 | 33810 ft | 473 kts | 239° |
| 2026-04-21 09:09 | 13.75460 | 107.63557 | 33809 ft | 474 kts | 239° |
| 2026-04-21 09:09 | 13.71794 | 107.57908 | 33810 ft | 475 kts | 239° |
| 2026-04-21 09:10 | 13.68128 | 107.52257 | 33811 ft | 475 kts | 239° |
| 2026-04-21 09:10 | 13.64161 | 107.46817 | 33813 ft | 477 kts | 233° |
| 2026-04-21 09:11 | 13.59980 | 107.41519 | 33817 ft | 477 kts | 233° |
| 2026-04-21 09:11 | 13.55828 | 107.36252 | 33803 ft | 478 kts | 233° |
| 2026-04-21 09:12 | 13.51634 | 107.30936 | 33797 ft | 479 kts | 233° |
| 2026-04-21 09:12 | 13.47435 | 107.25610 | 33798 ft | 480 kts | 233° |
| 2026-04-21 09:13 | 13.43226 | 107.20282 | 33799 ft | 480 kts | 233° |
| 2026-04-21 09:13 | 13.39008 | 107.14951 | 33803 ft | 481 kts | 233° |
| 2026-04-21 09:14 | 13.34798 | 107.09620 | 33804 ft | 481 kts | 233° |
| 2026-04-21 09:14 | 13.30582 | 107.04286 | 33807 ft | 481 kts | 233° |
| 2026-04-21 09:15 | 13.26358 | 106.98959 | 33800 ft | 481 kts | 233° |
| 2026-04-21 09:15 | 13.22128 | 106.93624 | 33793 ft | 482 kts | 233° |
| 2026-04-21 09:16 | 13.20046 | 106.90997 | 33551 ft | 478 kts | 233° |
| 2026-04-21 09:16 | 13.17949 | 106.88353 | 33300 ft | 475 kts | 233° |
| 2026-04-21 09:16 | 13.15873 | 106.85736 | 33047 ft | 472 kts | 233° |
| 2026-04-21 09:16 | 13.13798 | 106.83121 | 32796 ft | 470 kts | 233° |
| 2026-04-21 09:17 | 13.11740 | 106.80527 | 32539 ft | 468 kts | 233° |
| 2026-04-21 09:17 | 13.09687 | 106.77939 | 32296 ft | 466 kts | 233° |
| 2026-04-21 09:17 | 13.07646 | 106.75365 | 32050 ft | 464 kts | 233° |
| 2026-04-21 09:17 | 13.05610 | 106.72800 | 31808 ft | 462 kts | 233° |
| 2026-04-21 09:18 | 13.03584 | 106.70249 | 31572 ft | 460 kts | 233° |
| 2026-04-21 09:18 | 13.01566 | 106.67709 | 31339 ft | 459 kts | 232° |
| 2026-04-21 09:18 | 12.99554 | 106.65181 | 31101 ft | 457 kts | 232° |
| 2026-04-21 09:18 | 12.97547 | 106.62661 | 30857 ft | 456 kts | 232° |
| 2026-04-21 09:19 | 12.95550 | 106.60151 | 30629 ft | 454 kts | 232° |
| 2026-04-21 09:19 | 12.93555 | 106.57646 | 30399 ft | 452 kts | 232° |
| 2026-04-21 09:19 | 12.91595 | 106.55183 | 30179 ft | 450 kts | 232° |
| 2026-04-21 09:19 | 12.89620 | 106.52699 | 29951 ft | 448 kts | 232° |
| 2026-04-21 09:20 | 12.87652 | 106.50222 | 29703 ft | 447 kts | 232° |
| 2026-04-21 09:20 | 12.85695 | 106.47760 | 29429 ft | 445 kts | 232° |
| 2026-04-21 09:20 | 12.83742 | 106.45311 | 29165 ft | 443 kts | 232° |
| 2026-04-21 09:20 | 12.81794 | 106.42872 | 28905 ft | 441 kts | 232° |
| 2026-04-21 09:21 | 12.79857 | 106.40445 | 28645 ft | 439 kts | 232° |
| 2026-04-21 09:21 | 12.77925 | 106.38020 | 28383 ft | 437 kts | 232° |
| 2026-04-21 09:21 | 12.76008 | 106.35611 | 28119 ft | 435 kts | 232° |
| 2026-04-21 09:21 | 12.74099 | 106.33210 | 27881 ft | 434 kts | 232° |
| 2026-04-21 09:22 | 12.72197 | 106.30822 | 27596 ft | 428 kts | 232° |
| 2026-04-21 09:22 | 12.70345 | 106.28503 | 27152 ft | 425 kts | 232° |
| 2026-04-21 09:22 | 12.68481 | 106.26174 | 26703 ft | 421 kts | 232° |
| 2026-04-21 09:22 | 12.66634 | 106.23862 | 26263 ft | 417 kts | 232° |
| 2026-04-21 09:23 | 12.64804 | 106.21570 | 25831 ft | 414 kts | 232° |
| 2026-04-21 09:23 | 12.62988 | 106.19298 | 25392 ft | 411 kts | 232° |
| 2026-04-21 09:23 | 12.61183 | 106.17045 | 24967 ft | 408 kts | 231° |
| 2026-04-21 09:23 | 12.59393 | 106.14809 | 24537 ft | 405 kts | 231° |
| 2026-04-21 09:24 | 12.57613 | 106.12583 | 24109 ft | 402 kts | 231° |
| 2026-04-21 09:24 | 12.55846 | 106.10371 | 23678 ft | 400 kts | 231° |
| 2026-04-21 09:24 | 12.54086 | 106.08170 | 23218 ft | 398 kts | 231° |
| 2026-04-21 09:24 | 12.52333 | 106.05981 | 22747 ft | 395 kts | 231° |
| 2026-04-21 09:25 | 12.50605 | 106.03821 | 22300 ft | 391 kts | 231° |
| 2026-04-21 09:25 | 12.48888 | 106.01677 | 21855 ft | 386 kts | 231° |
| 2026-04-21 09:25 | 12.47197 | 105.99561 | 21401 ft | 383 kts | 231° |
| 2026-04-21 09:25 | 12.45518 | 105.97458 | 20966 ft | 379 kts | 231° |
| 2026-04-21 09:26 | 12.43857 | 105.95380 | 20517 ft | 376 kts | 231° |
| 2026-04-21 09:26 | 12.42203 | 105.93315 | 20075 ft | 373 kts | 231° |
| 2026-04-21 09:26 | 12.40563 | 105.91271 | 19632 ft | 371 kts | 231° |
| 2026-04-21 09:26 | 12.38928 | 105.89234 | 19178 ft | 368 kts | 231° |
| 2026-04-21 09:27 | 12.37309 | 105.87216 | 18753 ft | 366 kts | 231° |
| 2026-04-21 09:27 | 12.35721 | 105.85236 | 18322 ft | 364 kts | 231° |
| 2026-04-21 09:27 | 12.34120 | 105.83239 | 17857 ft | 362 kts | 231° |
| 2026-04-21 09:27 | 12.32528 | 105.81256 | 17406 ft | 358 kts | 231° |
| 2026-04-21 09:28 | 12.30956 | 105.79297 | 16981 ft | 354 kts | 231° |
| 2026-04-21 09:28 | 12.29400 | 105.77362 | 16559 ft | 350 kts | 231° |
| 2026-04-21 09:28 | 12.27862 | 105.75448 | 16130 ft | 347 kts | 231° |
| 2026-04-21 09:28 | 12.26337 | 105.73551 | 15713 ft | 343 kts | 231° |
| 2026-04-21 09:29 | 12.24828 | 105.71677 | 15300 ft | 340 kts | 231° |
| 2026-04-21 09:29 | 12.23334 | 105.69819 | 14890 ft | 337 kts | 231° |
| 2026-04-21 09:29 | 12.21855 | 105.67976 | 14483 ft | 334 kts | 231° |
| 2026-04-21 09:29 | 12.20391 | 105.66147 | 14082 ft | 331 kts | 231° |
| 2026-04-21 09:30 | 12.18937 | 105.64332 | 13679 ft | 328 kts | 231° |
| 2026-04-21 09:30 | 12.17495 | 105.62537 | 13251 ft | 325 kts | 231° |
| 2026-04-21 09:30 | 12.16067 | 105.60760 | 12850 ft | 322 kts | 231° |
| 2026-04-21 09:30 | 12.14654 | 105.59003 | 12468 ft | 318 kts | 231° |
| 2026-04-21 09:31 | 12.13257 | 105.57266 | 12080 ft | 315 kts | 231° |
| 2026-04-21 09:31 | 12.11871 | 105.55546 | 11703 ft | 312 kts | 230° |
| 2026-04-21 09:31 | 12.10514 | 105.53863 | 11331 ft | 310 kts | 231° |
| 2026-04-21 09:31 | 12.09152 | 105.52172 | 10959 ft | 307 kts | 231° |
| 2026-04-21 09:32 | 12.07798 | 105.50489 | 10586 ft | 305 kts | 231° |
| 2026-04-21 09:32 | 12.06455 | 105.48817 | 10216 ft | 303 kts | 231° |
| 2026-04-21 09:32 | 12.05127 | 105.47164 | 9923 ft | 298 kts | 231° |
| 2026-04-21 09:32 | 12.03809 | 105.45526 | 9829 ft | 300 kts | 231° |
| 2026-04-21 09:33 | 12.02476 | 105.43871 | 9545 ft | 303 kts | 231° |
| 2026-04-21 09:33 | 12.01145 | 105.42217 | 9269 ft | 297 kts | 230° |
| 2026-04-21 09:33 | 11.99851 | 105.40608 | 9142 ft | 291 kts | 230° |
| 2026-04-21 09:33 | 11.98569 | 105.39017 | 9016 ft | 289 kts | 230° |
| 2026-04-21 09:34 | 11.97292 | 105.37435 | 8892 ft | 288 kts | 230° |
| 2026-04-21 09:34 | 11.96193 | 105.35749 | 8764 ft | 285 kts | 248° |
| 2026-04-21 09:34 | 11.95833 | 105.33773 | 8645 ft | 285 kts | 273° |
| 2026-04-21 09:34 | 11.96291 | 105.31825 | 8518 ft | 284 kts | 297° |
| 2026-04-21 09:35 | 11.97481 | 105.30232 | 8393 ft | 284 kts | 321° |
| 2026-04-21 09:35 | 11.99196 | 105.29272 | 8273 ft | 283 kts | 345° |
| 2026-04-21 09:35 | 12.01135 | 105.29098 | 8150 ft | 281 kts | 9° |
| 2026-04-21 09:35 | 12.02384 | 105.29430 | 8063 ft | 280 kts | 24° |
| 2026-04-21 09:36 | 12.03979 | 105.30535 | 7951 ft | 278 kts | 47° |
| 2026-04-21 09:36 | 12.05261 | 105.32014 | 7871 ft | 278 kts | 51° |
| 2026-04-21 09:36 | 12.06486 | 105.33549 | 7879 ft | 279 kts | 52° |
| 2026-04-21 09:36 | 12.07693 | 105.35104 | 7882 ft | 279 kts | 52° |
| 2026-04-21 09:37 | 12.08899 | 105.36661 | 7881 ft | 279 kts | 52° |
| 2026-04-21 09:37 | 12.10180 | 105.38931 | 7881 ft | 277 kts | 76° |
| 2026-04-21 09:37 | 12.10352 | 105.40219 | 7883 ft | 277 kts | 91° |
| 2026-04-21 09:37 | 12.09973 | 105.42137 | 7883 ft | 277 kts | 114° |
| 2026-04-21 09:38 | 12.08894 | 105.43747 | 7879 ft | 276 kts | 137° |
| 2026-04-21 09:38 | 12.07280 | 105.44791 | 7881 ft | 277 kts | 160° |
| 2026-04-21 09:38 | 12.05383 | 105.45098 | 7880 ft | 278 kts | 184° |
| 2026-04-21 09:38 | 12.03517 | 105.44605 | 7885 ft | 279 kts | 207° |
| 2026-04-21 09:39 | 12.01983 | 105.43393 | 7883 ft | 281 kts | 227° |
| 2026-04-21 09:39 | 12.00701 | 105.41886 | 7884 ft | 282 kts | 230° |
| 2026-04-21 09:39 | 11.99463 | 105.40327 | 7883 ft | 282 kts | 231° |
| 2026-04-21 09:39 | 11.98263 | 105.38775 | 7883 ft | 282 kts | 231° |
| 2026-04-21 09:40 | 11.97036 | 105.37182 | 7883 ft | 281 kts | 231° |
| 2026-04-21 09:40 | 11.96096 | 105.35477 | 7881 ft | 281 kts | 253° |
| 2026-04-21 09:40 | 11.95909 | 105.33498 | 7882 ft | 282 kts | 278° |
| 2026-04-21 09:40 | 11.96548 | 105.31615 | 7886 ft | 284 kts | 303° |
| 2026-04-21 09:41 | 11.97928 | 105.30159 | 7881 ft | 283 kts | 328° |
| 2026-04-21 09:41 | 11.99725 | 105.29452 | 7885 ft | 282 kts | 353° |
| 2026-04-21 09:41 | 12.01661 | 105.29573 | 7886 ft | 280 kts | 18° |
| 2026-04-21 09:41 | 12.03364 | 105.30499 | 7886 ft | 279 kts | 43° |
| 2026-04-21 09:42 | 12.04678 | 105.31949 | 7886 ft | 279 kts | 51° |
| 2026-04-21 09:42 | 12.05907 | 105.33478 | 7882 ft | 279 kts | 52° |
| 2026-04-21 09:42 | 12.07113 | 105.35029 | 7879 ft | 279 kts | 52° |
| 2026-04-21 09:42 | 12.08317 | 105.36586 | 7880 ft | 279 kts | 52° |
| 2026-04-21 09:43 | 12.09422 | 105.38200 | 7881 ft | 277 kts | 66° |
| 2026-04-21 09:43 | 12.09875 | 105.40099 | 7884 ft | 276 kts | 90° |
| 2026-04-21 09:43 | 12.09533 | 105.42017 | 7885 ft | 276 kts | 114° |
| 2026-04-21 09:43 | 12.08453 | 105.43619 | 7886 ft | 276 kts | 137° |
| 2026-04-21 09:44 | 12.06820 | 105.44631 | 7880 ft | 276 kts | 162° |
| 2026-04-21 09:44 | 12.04920 | 105.44861 | 7883 ft | 278 kts | 186° |
| 2026-04-21 09:44 | 12.03088 | 105.44267 | 7882 ft | 279 kts | 211° |
| 2026-04-21 09:44 | 12.01628 | 105.42967 | 7887 ft | 281 kts | 228° |
| 2026-04-21 09:45 | 12.00380 | 105.41462 | 7886 ft | 281 kts | 230° |
| 2026-04-21 09:45 | 11.99151 | 105.39905 | 7884 ft | 281 kts | 231° |
| 2026-04-21 09:45 | 11.97936 | 105.38340 | 7883 ft | 281 kts | 231° |
| 2026-04-21 09:45 | 11.96734 | 105.36765 | 7883 ft | 281 kts | 235° |
| 2026-04-21 09:46 | 11.95969 | 105.34947 | 7882 ft | 281 kts | 259° |
| 2026-04-21 09:46 | 11.96009 | 105.32959 | 7885 ft | 283 kts | 284° |
| 2026-04-21 09:46 | 11.96862 | 105.31170 | 7885 ft | 282 kts | 310° |
| 2026-04-21 09:46 | 11.98371 | 105.29920 | 7882 ft | 281 kts | 335° |
| 2026-04-21 09:47 | 12.00255 | 105.29431 | 7884 ft | 281 kts | 0° |
| 2026-04-21 09:47 | 12.02156 | 105.29781 | 7885 ft | 279 kts | 25° |
| 2026-04-21 09:47 | 12.03735 | 105.30899 | 7884 ft | 277 kts | 48° |
| 2026-04-21 09:47 | 12.04999 | 105.32390 | 7880 ft | 278 kts | 51° |
| 2026-04-21 09:48 | 12.06214 | 105.33925 | 7880 ft | 278 kts | 52° |
| 2026-04-21 09:48 | 12.07414 | 105.35473 | 7883 ft | 278 kts | 52° |
| 2026-04-21 09:48 | 12.08617 | 105.37022 | 7879 ft | 278 kts | 52° |
| 2026-04-21 09:48 | 12.09598 | 105.38704 | 7880 ft | 276 kts | 72° |
| 2026-04-21 09:49 | 12.09838 | 105.40633 | 7880 ft | 275 kts | 96° |
| 2026-04-21 09:49 | 12.09282 | 105.42496 | 7882 ft | 275 kts | 120° |
| 2026-04-21 09:49 | 12.08029 | 105.43955 | 7881 ft | 275 kts | 144° |
| 2026-04-21 09:49 | 12.06297 | 105.44762 | 7881 ft | 276 kts | 168° |
| 2026-04-21 09:50 | 12.04387 | 105.44765 | 8013 ft | 278 kts | 192° |
| 2026-04-21 09:50 | 12.03758 | 105.44584 | 8043 ft | 279 kts | 200° |
| 2026-04-21 09:50 | 12.00015 | 105.41002 | 8080 ft | 282 kts | 231° |
| 2026-04-21 09:51 | 11.98792 | 105.39432 | 8081 ft | 282 kts | 231° |
| 2026-04-21 09:51 | 11.97575 | 105.37856 | 8081 ft | 282 kts | 231° |
| 2026-04-21 09:51 | 11.96371 | 105.36304 | 8006 ft | 286 kts | 231° |
| 2026-04-21 09:51 | 11.95111 | 105.34715 | 7569 ft | 287 kts | 230° |
| 2026-04-21 09:52 | 11.93845 | 105.33144 | 7195 ft | 285 kts | 229° |
| 2026-04-21 09:52 | 11.92584 | 105.31587 | 6815 ft | 284 kts | 229° |
| 2026-04-21 09:52 | 11.91330 | 105.30040 | 6463 ft | 282 kts | 229° |
| 2026-04-21 09:52 | 11.90085 | 105.28503 | 6111 ft | 281 kts | 230° |
| 2026-04-21 09:53 | 11.88843 | 105.26968 | 5730 ft | 280 kts | 229° |
| 2026-04-21 09:53 | 11.87609 | 105.25440 | 5373 ft | 278 kts | 229° |
| 2026-04-21 09:53 | 11.86380 | 105.23919 | 5017 ft | 276 kts | 230° |
| 2026-04-21 09:53 | 11.85202 | 105.22393 | 4818 ft | 272 kts | 231° |
| 2026-04-21 09:54 | 11.84066 | 105.20839 | 4674 ft | 274 kts | 232° |
| 2026-04-21 09:54 | 11.82943 | 105.19271 | 4524 ft | 273 kts | 232° |
| 2026-04-21 09:54 | 11.81826 | 105.17710 | 4368 ft | 271 kts | 232° |
| 2026-04-21 09:54 | 11.80709 | 105.16153 | 4210 ft | 272 kts | 232° |
| 2026-04-21 09:55 | 11.79588 | 105.14597 | 4050 ft | 271 kts | 232° |
| 2026-04-21 09:55 | 11.78472 | 105.13055 | 3898 ft | 270 kts | 232° |
| 2026-04-21 09:55 | 11.77356 | 105.11515 | 3745 ft | 269 kts | 232° |
| 2026-04-21 09:55 | 11.76244 | 105.09982 | 3596 ft | 269 kts | 232° |
| 2026-04-21 09:56 | 11.75132 | 105.08453 | 3440 ft | 268 kts | 231° |
| 2026-04-21 09:56 | 11.74036 | 105.06948 | 3291 ft | 267 kts | 231° |
| 2026-04-21 09:56 | 11.72927 | 105.05424 | 3157 ft | 267 kts | 232° |
| 2026-04-21 09:56 | 11.71821 | 105.03904 | 3019 ft | 266 kts | 232° |
| 2026-04-21 09:57 | 11.70751 | 105.02431 | 2896 ft | 249 kts | 231° |
| 2026-04-21 09:57 | 11.69749 | 105.01053 | 2792 ft | 237 kts | 231° |
| 2026-04-21 09:57 | 11.68782 | 104.99726 | 2710 ft | 227 kts | 232° |
| 2026-04-21 09:57 | 11.67863 | 104.98450 | 2597 ft | 220 kts | 232° |
| 2026-04-21 09:58 | 11.66911 | 104.97237 | 2503 ft | 218 kts | 226° |
| 2026-04-21 09:58 | 11.65878 | 104.96109 | 2360 ft | 216 kts | 224° |
| 2026-04-21 09:58 | 11.64836 | 104.95019 | 2207 ft | 212 kts | 224° |
| 2026-04-21 09:58 | 11.63840 | 104.93982 | 2086 ft | 197 kts | 224° |
| 2026-04-21 09:59 | 11.62911 | 104.93014 | 1966 ft | 185 kts | 224° |
| 2026-04-21 09:59 | 11.62033 | 104.92100 | 1775 ft | 175 kts | 224° |
| 2026-04-21 09:59 | 11.61204 | 104.91236 | 1564 ft | 166 kts | 223° |
| 2026-04-21 09:59 | 11.60412 | 104.90411 | 1367 ft | 158 kts | 224° |
| 2026-04-21 10:00 | 11.59655 | 104.89623 | 1168 ft | 153 kts | 223° |
| 2026-04-21 10:00 | 11.58927 | 104.88864 | 986 ft | 150 kts | 223° |
| 2026-04-21 10:00 | 11.58190 | 104.88097 | 803 ft | 152 kts | 222° |
| 2026-04-21 10:00 | 11.57458 | 104.87335 | 625 ft | 150 kts | 226° |
| 2026-04-21 10:01 | 11.56733 | 104.86580 | 428 ft | 148 kts | 223° |
| 2026-04-21 10:01 | 11.56016 | 104.85831 | 246 ft | 148 kts | 221° |
| 2026-04-21 10:01 | 11.55301 | 104.85081 | 103 ft | 147 kts | 223° |
| 2026-04-21 10:01 | 11.54633 | 104.84396 | 52 ft | 115 kts | 225° |
| 2026-04-21 10:02 | 11.54161 | 104.83899 | 57 ft | 26 kts | 225° |
| 2026-04-21 10:02 | 11.54137 | 104.83812 | 58 ft | 12 kts | 310° |
| 2026-04-21 10:02 | 11.54201 | 104.83751 | 58 ft | 13 kts | 323° |
| 2026-04-21 10:03 | 11.54276 | 104.83769 | 54 ft | 13 kts | 44° |
| 2026-04-21 10:03 | 11.54340 | 104.83835 | 59 ft | 14 kts | 46° |
| 2026-04-21 10:03 | 11.54408 | 104.83906 | 56 ft | 15 kts | 46° |
| 2026-04-21 10:03 | 11.54482 | 104.83983 | 53 ft | 16 kts | 45° |
| 2026-04-21 10:04 | 11.54562 | 104.84065 | 57 ft | 17 kts | 45° |
| 2026-04-21 10:04 | 11.54645 | 104.84153 | 59 ft | 18 kts | 46° |
| 2026-04-21 10:04 | 11.54734 | 104.84245 | 57 ft | 19 kts | 46° |
| 2026-04-21 10:04 | 11.54826 | 104.84341 | 56 ft | 19 kts | 45° |
| 2026-04-21 10:05 | 11.54922 | 104.84441 | 57 ft | 20 kts | 45° |
| 2026-04-21 10:05 | 11.55021 | 104.84545 | 59 ft | 20 kts | 45° |
| 2026-04-21 10:05 | 11.55088 | 104.84587 | 56 ft | 10 kts | 8° |
| 2026-04-21 10:05 | 11.55157 | 104.84615 | 54 ft | 11 kts | 40° |
| 2026-04-21 10:06 | 11.55214 | 104.84675 | 56 ft | 12 kts | 52° |
| 2026-04-21 10:06 | 11.55246 | 104.84702 | 54 ft | 5 kts | 351° |
| 2026-04-21 10:06 | 11.55274 | 104.84686 | 57 ft | 3 kts | 320° |
| 2026-04-21 10:06 | 11.55287 | 104.84674 | 61 ft | 1 kts | 317° |
| 2026-04-21 10:07 | 11.55291 | 104.84670 | 57 ft | 0 kts | 317° |